sensor_id;sensor_type;location;lat;lon;timestamp;temperature;humidity
27559;DHT22;15002;52.028;5.670;2023-06-14T00:01:50;22.10;65.20
27559;DHT22;15002;52.028;5.670;2023-06-14T00:04:16;21.90;65.50
27559;DHT22;15002;52.028;5.670;2023-06-14T00:06:43;21.80;66.10
27559;DHT22;15002;52.028;5.670;2023-06-14T00:09:14;21.90;65.10
27559;DHT22;15002;52.028;5.670;2023-06-14T00:11:43;21.90;65.20
27559;DHT22;15002;52.028;5.670;2023-06-14T00:14:09;21.80;65.40
27559;DHT22;15002;52.028;5.670;2023-06-14T00:16:35;21.70;65.90
27559;DHT22;15002;52.028;5.670;2023-06-14T00:19:01;21.70;66.00
27559;DHT22;15002;52.028;5.670;2023-06-14T00:21:29;21.50;66.50
27559;DHT22;15002;52.028;5.670;2023-06-14T00:23:56;21.50;66.90
27559;DHT22;15002;52.028;5.670;2023-06-14T00:26:22;21.50;67.20
27559;DHT22;15002;52.028;5.670;2023-06-14T00:28:48;21.50;66.80
27559;DHT22;15002;52.028;5.670;2023-06-14T00:31:14;21.60;66.70
27559;DHT22;15002;52.028;5.670;2023-06-14T00:33:40;21.60;66.80
27559;DHT22;15002;52.028;5.670;2023-06-14T00:36:05;21.30;67.90
27559;DHT22;15002;52.028;5.670;2023-06-14T00:38:31;21.30;68.00
27559;DHT22;15002;52.028;5.670;2023-06-14T00:40:57;21.40;67.90
27559;DHT22;15002;52.028;5.670;2023-06-14T00:43:22;21.20;68.30
27559;DHT22;15002;52.028;5.670;2023-06-14T00:45:48;21.10;68.60
27559;DHT22;15002;52.028;5.670;2023-06-14T00:48:15;21.20;68.60
27559;DHT22;15002;52.028;5.670;2023-06-14T00:50:41;21.20;68.50
27559;DHT22;15002;52.028;5.670;2023-06-14T00:53:07;21.30;68.40
27559;DHT22;15002;52.028;5.670;2023-06-14T00:55:33;21.20;68.50
27559;DHT22;15002;52.028;5.670;2023-06-14T00:57:59;21.50;68.00
27559;DHT22;15002;52.028;5.670;2023-06-14T01:00:25;21.20;68.60
27559;DHT22;15002;52.028;5.670;2023-06-14T01:02:51;21.30;68.70
27559;DHT22;15002;52.028;5.670;2023-06-14T01:05:17;20.90;69.40
27559;DHT22;15002;52.028;5.670;2023-06-14T01:13:23;20.80;70.00
27559;DHT22;15002;52.028;5.670;2023-06-14T01:15:50;20.90;69.70
27559;DHT22;15002;52.028;5.670;2023-06-14T01:18:17;21.10;69.50
27559;DHT22;15002;52.028;5.670;2023-06-14T01:20:44;20.90;69.60
27559;DHT22;15002;52.028;5.670;2023-06-14T01:23:18;20.90;69.80
27559;DHT22;15002;52.028;5.670;2023-06-14T01:25:44;20.80;69.70
27559;DHT22;15002;52.028;5.670;2023-06-14T01:28:12;20.80;70.00
27559;DHT22;15002;52.028;5.670;2023-06-14T01:30:41;20.50;70.80
27559;DHT22;15002;52.028;5.670;2023-06-14T01:33:20;20.50;70.90
27559;DHT22;15002;52.028;5.670;2023-06-14T01:35:48;20.50;70.80
27559;DHT22;15002;52.028;5.670;2023-06-14T01:38:15;20.80;70.50
27559;DHT22;15002;52.028;5.670;2023-06-14T01:40:45;20.50;71.20
27559;DHT22;15002;52.028;5.670;2023-06-14T01:43:14;20.70;70.60
27559;DHT22;15002;52.028;5.670;2023-06-14T01:45:45;20.70;70.70
27559;DHT22;15002;52.028;5.670;2023-06-14T01:48:11;20.80;70.50
27559;DHT22;15002;52.028;5.670;2023-06-14T01:50:37;20.50;71.00
27559;DHT22;15002;52.028;5.670;2023-06-14T01:53:07;20.30;72.00
27559;DHT22;15002;52.028;5.670;2023-06-14T01:55:33;20.10;72.40
27559;DHT22;15002;52.028;5.670;2023-06-14T01:58:03;20.30;72.00
27559;DHT22;15002;52.028;5.670;2023-06-14T02:00:29;20.40;71.60
27559;DHT22;15002;52.028;5.670;2023-06-14T02:02:55;20.40;71.50
27559;DHT22;15002;52.028;5.670;2023-06-14T02:05:21;20.30;72.00
27559;DHT22;15002;52.028;5.670;2023-06-14T02:07:47;20.00;72.90
27559;DHT22;15002;52.028;5.670;2023-06-14T02:10:13;19.90;73.30
27559;DHT22;15002;52.028;5.670;2023-06-14T02:12:40;19.50;74.50
27559;DHT22;15002;52.028;5.670;2023-06-14T02:15:06;19.80;73.90
27559;DHT22;15002;52.028;5.670;2023-06-14T02:17:32;19.90;73.30
27559;DHT22;15002;52.028;5.670;2023-06-14T02:19:59;19.70;73.80
27559;DHT22;15002;52.028;5.670;2023-06-14T02:22:25;19.80;73.80
27559;DHT22;15002;52.028;5.670;2023-06-14T02:24:50;19.80;73.60
27559;DHT22;15002;52.028;5.670;2023-06-14T02:27:17;20.10;73.00
27559;DHT22;15002;52.028;5.670;2023-06-14T02:29:43;19.70;73.60
27559;DHT22;15002;52.028;5.670;2023-06-14T02:32:08;19.60;74.30
27559;DHT22;15002;52.028;5.670;2023-06-14T02:34:34;19.50;74.30
27559;DHT22;15002;52.028;5.670;2023-06-14T02:37:00;19.40;75.00
27559;DHT22;15002;52.028;5.670;2023-06-14T02:39:28;19.60;74.40
27559;DHT22;15002;52.028;5.670;2023-06-14T02:41:54;19.50;74.60
27559;DHT22;15002;52.028;5.670;2023-06-14T02:44:19;19.50;75.00
27559;DHT22;15002;52.028;5.670;2023-06-14T02:46:49;19.50;74.90
27559;DHT22;15002;52.028;5.670;2023-06-14T02:49:14;19.40;75.10
27559;DHT22;15002;52.028;5.670;2023-06-14T02:51:40;19.30;75.10
27559;DHT22;15002;52.028;5.670;2023-06-14T02:54:06;19.30;75.40
27559;DHT22;15002;52.028;5.670;2023-06-14T02:56:31;19.60;74.40
27559;DHT22;15002;52.028;5.670;2023-06-14T02:58:57;19.40;75.00
27559;DHT22;15002;52.028;5.670;2023-06-14T03:01:27;19.40;75.70
27559;DHT22;15002;52.028;5.670;2023-06-14T03:04:01;19.50;75.20
27559;DHT22;15002;52.028;5.670;2023-06-14T03:06:28;19.60;74.50
27559;DHT22;15002;52.028;5.670;2023-06-14T03:09:02;19.50;75.10
27559;DHT22;15002;52.028;5.670;2023-06-14T03:11:30;19.40;75.70
27559;DHT22;15002;52.028;5.670;2023-06-14T03:13:56;19.10;76.60
27559;DHT22;15002;52.028;5.670;2023-06-14T03:16:22;18.90;77.40
27559;DHT22;15002;52.028;5.670;2023-06-14T03:18:50;19.00;77.00
27559;DHT22;15002;52.028;5.670;2023-06-14T03:21:16;18.90;77.20
27559;DHT22;15002;52.028;5.670;2023-06-14T03:23:43;18.80;78.00
27559;DHT22;15002;52.028;5.670;2023-06-14T03:26:09;18.80;78.00
27559;DHT22;15002;52.028;5.670;2023-06-14T03:28:39;18.70;77.90
27559;DHT22;15002;52.028;5.670;2023-06-14T03:31:05;18.60;78.60
27559;DHT22;15002;52.028;5.670;2023-06-14T03:33:31;18.50;78.90
27559;DHT22;15002;52.028;5.670;2023-06-14T03:35:57;18.70;78.40
27559;DHT22;15002;52.028;5.670;2023-06-14T03:38:23;18.90;77.90
27559;DHT22;15002;52.028;5.670;2023-06-14T03:40:48;19.00;77.50
27559;DHT22;15002;52.028;5.670;2023-06-14T03:43:14;18.90;77.80
27559;DHT22;15002;52.028;5.670;2023-06-14T03:45:40;19.00;77.60
27559;DHT22;15002;52.028;5.670;2023-06-14T03:48:06;19.10;77.30
27559;DHT22;15002;52.028;5.670;2023-06-14T03:50:33;18.90;77.70
27559;DHT22;15002;52.028;5.670;2023-06-14T03:52:59;18.90;78.20
27559;DHT22;15002;52.028;5.670;2023-06-14T03:55:26;18.80;78.00
27559;DHT22;15002;52.028;5.670;2023-06-14T03:57:53;18.70;78.50
27559;DHT22;15002;52.028;5.670;2023-06-14T04:00:18;18.60;79.50
27559;DHT22;15002;52.028;5.670;2023-06-14T04:02:44;18.80;78.40
27559;DHT22;15002;52.028;5.670;2023-06-14T04:05:10;18.90;78.40
27559;DHT22;15002;52.028;5.670;2023-06-14T04:07:36;19.00;78.10
27559;DHT22;15002;52.028;5.670;2023-06-14T04:10:14;18.90;78.20
27559;DHT22;15002;52.028;5.670;2023-06-14T04:12:41;19.10;77.80
27559;DHT22;15002;52.028;5.670;2023-06-14T04:15:07;19.10;77.90
27559;DHT22;15002;52.028;5.670;2023-06-14T04:17:34;19.00;78.10
27559;DHT22;15002;52.028;5.670;2023-06-14T04:20:00;19.10;77.70
27559;DHT22;15002;52.028;5.670;2023-06-14T04:22:26;19.10;77.60
27559;DHT22;15002;52.028;5.670;2023-06-14T04:24:55;19.10;78.10
27559;DHT22;15002;52.028;5.670;2023-06-14T04:27:25;19.40;77.60
27559;DHT22;15002;52.028;5.670;2023-06-14T04:29:53;19.90;76.00
27559;DHT22;15002;52.028;5.670;2023-06-14T04:32:24;20.50;74.60
27559;DHT22;15002;52.028;5.670;2023-06-14T04:34:51;21.10;72.20
27559;DHT22;15002;52.028;5.670;2023-06-14T04:37:19;21.40;71.50
27559;DHT22;15002;52.028;5.670;2023-06-14T04:39:46;21.60;70.40
27559;DHT22;15002;52.028;5.670;2023-06-14T04:42:12;21.70;70.60
27559;DHT22;15002;52.028;5.670;2023-06-14T04:44:43;21.40;70.90
27559;DHT22;15002;52.028;5.670;2023-06-14T04:47:09;21.50;71.00
27559;DHT22;15002;52.028;5.670;2023-06-14T04:49:35;21.60;70.90
27559;DHT22;15002;52.028;5.670;2023-06-14T04:52:01;21.90;71.00
27559;DHT22;15002;52.028;5.670;2023-06-14T04:54:27;21.40;70.60
27559;DHT22;15002;52.028;5.670;2023-06-14T04:56:53;21.60;70.90
27559;DHT22;15002;52.028;5.670;2023-06-14T04:59:21;21.30;71.80
27559;DHT22;15002;52.028;5.670;2023-06-14T05:01:51;21.60;71.00
27559;DHT22;15002;52.028;5.670;2023-06-14T05:04:19;21.40;71.30
27559;DHT22;15002;52.028;5.670;2023-06-14T05:06:45;21.40;70.90
27559;DHT22;15002;52.028;5.670;2023-06-14T05:09:12;21.00;72.10
27559;DHT22;15002;52.028;5.670;2023-06-14T05:11:38;21.10;72.10
27559;DHT22;15002;52.028;5.670;2023-06-14T05:14:04;21.00;72.70
27559;DHT22;15002;52.028;5.670;2023-06-14T05:16:29;20.80;72.70
27559;DHT22;15002;52.028;5.670;2023-06-14T05:18:55;20.80;73.20
27559;DHT22;15002;52.028;5.670;2023-06-14T05:21:21;21.00;72.30
27559;DHT22;15002;52.028;5.670;2023-06-14T05:23:47;21.10;72.60
27559;DHT22;15002;52.028;5.670;2023-06-14T05:26:13;21.10;72.30
27559;DHT22;15002;52.028;5.670;2023-06-14T05:28:38;21.30;71.40
27559;DHT22;15002;52.028;5.670;2023-06-14T05:31:04;21.10;71.70
27559;DHT22;15002;52.028;5.670;2023-06-14T05:33:30;21.20;72.20
27559;DHT22;15002;52.028;5.670;2023-06-14T05:35:55;20.80;73.10
27559;DHT22;15002;52.028;5.670;2023-06-14T05:38:21;20.80;73.20
27559;DHT22;15002;52.028;5.670;2023-06-14T05:40:47;21.00;72.30
27559;DHT22;15002;52.028;5.670;2023-06-14T05:43:12;21.30;72.00
27559;DHT22;15002;52.028;5.670;2023-06-14T05:45:38;21.20;71.80
27559;DHT22;15002;52.028;5.670;2023-06-14T05:48:04;21.00;73.00
27559;DHT22;15002;52.028;5.670;2023-06-14T05:50:30;21.00;73.10
27559;DHT22;15002;52.028;5.670;2023-06-14T05:52:55;21.00;72.30
27559;DHT22;15002;52.028;5.670;2023-06-14T05:55:21;21.20;72.40
27559;DHT22;15002;52.028;5.670;2023-06-14T05:57:47;21.00;72.30
27559;DHT22;15002;52.028;5.670;2023-06-14T06:00:14;21.10;72.00
27559;DHT22;15002;52.028;5.670;2023-06-14T06:02:44;21.20;71.70
27559;DHT22;15002;52.028;5.670;2023-06-14T06:05:12;21.30;71.50
27559;DHT22;15002;52.028;5.670;2023-06-14T06:07:38;21.40;71.60
27559;DHT22;15002;52.028;5.670;2023-06-14T06:10:06;21.50;71.30
27559;DHT22;15002;52.028;5.670;2023-06-14T06:12:32;21.60;71.40
27559;DHT22;15002;52.028;5.670;2023-06-14T06:14:58;21.80;70.40
27559;DHT22;15002;52.028;5.670;2023-06-14T06:17:25;21.80;70.30
27559;DHT22;15002;52.028;5.670;2023-06-14T06:19:51;22.10;70.30
27559;DHT22;15002;52.028;5.670;2023-06-14T06:22:16;22.40;69.30
27559;DHT22;15002;52.028;5.670;2023-06-14T06:24:42;22.20;69.50
27559;DHT22;15002;52.028;5.670;2023-06-14T06:27:08;22.20;69.10
27559;DHT22;15002;52.028;5.670;2023-06-14T06:29:35;22.10;70.00
27559;DHT22;15002;52.028;5.670;2023-06-14T06:32:01;22.30;69.90
27559;DHT22;15002;52.028;5.670;2023-06-14T06:34:28;22.70;68.90
27559;DHT22;15002;52.028;5.670;2023-06-14T06:36:53;23.10;67.70
27559;DHT22;15002;52.028;5.670;2023-06-14T06:39:19;23.40;67.30
27559;DHT22;15002;52.028;5.670;2023-06-14T06:41:45;24.10;65.30
27559;DHT22;15002;52.028;5.670;2023-06-14T06:44:10;25.00;64.00
27559;DHT22;15002;52.028;5.670;2023-06-14T06:46:36;25.50;62.10
27559;DHT22;15002;52.028;5.670;2023-06-14T06:49:06;26.00;60.00
27559;DHT22;15002;52.028;5.670;2023-06-14T06:51:32;26.80;60.00
27559;DHT22;15002;52.028;5.670;2023-06-14T06:53:58;27.40;58.50
27559;DHT22;15002;52.028;5.670;2023-06-14T06:56:23;27.70;57.60
27559;DHT22;15002;52.028;5.670;2023-06-14T06:58:50;28.10;56.60
27559;DHT22;15002;52.028;5.670;2023-06-14T07:01:16;28.80;55.90
27559;DHT22;15002;52.028;5.670;2023-06-14T07:03:43;28.50;54.90
27559;DHT22;15002;52.028;5.670;2023-06-14T07:06:08;28.20;55.20
27559;DHT22;15002;52.028;5.670;2023-06-14T07:08:34;28.20;55.40
27559;DHT22;15002;52.028;5.670;2023-06-14T07:11:00;28.60;54.80
27559;DHT22;15002;52.028;5.670;2023-06-14T07:13:25;29.50;54.00
27559;DHT22;15002;52.028;5.670;2023-06-14T07:15:54;29.80;53.40
27559;DHT22;15002;52.028;5.670;2023-06-14T07:18:22;29.70;53.50
27559;DHT22;15002;52.028;5.670;2023-06-14T07:20:48;30.40;52.90
27559;DHT22;15002;52.028;5.670;2023-06-14T07:23:13;30.70;51.50
27559;DHT22;15002;52.028;5.670;2023-06-14T07:25:39;29.90;52.40
27559;DHT22;15002;52.028;5.670;2023-06-14T07:28:05;30.40;52.20
27559;DHT22;15002;52.028;5.670;2023-06-14T07:30:30;30.60;51.10
27559;DHT22;15002;52.028;5.670;2023-06-14T07:32:56;30.30;52.40
27559;DHT22;15002;52.028;5.670;2023-06-14T07:35:22;30.20;51.50
27559;DHT22;15002;52.028;5.670;2023-06-14T07:37:48;30.10;51.40
27559;DHT22;15002;52.028;5.670;2023-06-14T07:40:15;30.20;50.50
27559;DHT22;15002;52.028;5.670;2023-06-14T07:42:41;30.50;50.00
27559;DHT22;15002;52.028;5.670;2023-06-14T07:45:07;30.50;50.70
27559;DHT22;15002;52.028;5.670;2023-06-14T07:47:33;30.30;49.30
27559;DHT22;15002;52.028;5.670;2023-06-14T07:49:59;30.20;49.50
27559;DHT22;15002;52.028;5.670;2023-06-14T07:52:25;30.00;49.60
27559;DHT22;15002;52.028;5.670;2023-06-14T07:54:50;30.20;49.70
27559;DHT22;15002;52.028;5.670;2023-06-14T07:57:16;30.30;49.30
27559;DHT22;15002;52.028;5.670;2023-06-14T07:59:42;30.00;49.50
27559;DHT22;15002;52.028;5.670;2023-06-14T08:02:07;30.30;49.30
27559;DHT22;15002;52.028;5.670;2023-06-14T08:04:33;29.70;49.60
27559;DHT22;15002;52.028;5.670;2023-06-14T08:06:59;29.70;49.60
27559;DHT22;15002;52.028;5.670;2023-06-14T08:09:26;29.80;49.60
27559;DHT22;15002;52.028;5.670;2023-06-14T08:11:54;30.10;50.00
27559;DHT22;15002;52.028;5.670;2023-06-14T08:14:19;30.50;49.50
27559;DHT22;15002;52.028;5.670;2023-06-14T08:16:45;30.60;48.70
27559;DHT22;15002;52.028;5.670;2023-06-14T08:19:11;30.60;48.30
27559;DHT22;15002;52.028;5.670;2023-06-14T08:21:37;29.80;49.20
27559;DHT22;15002;52.028;5.670;2023-06-14T08:24:02;29.80;49.10
27559;DHT22;15002;52.028;5.670;2023-06-14T08:26:29;30.00;48.70
27559;DHT22;15002;52.028;5.670;2023-06-14T08:28:56;29.90;49.60
27559;DHT22;15002;52.028;5.670;2023-06-14T08:31:22;30.30;48.80
27559;DHT22;15002;52.028;5.670;2023-06-14T08:33:47;30.50;47.60
27559;DHT22;15002;52.028;5.670;2023-06-14T08:36:13;30.10;48.50
27559;DHT22;15002;52.028;5.670;2023-06-14T08:38:39;29.90;48.80
27559;DHT22;15002;52.028;5.670;2023-06-14T08:41:05;29.90;48.50
27559;DHT22;15002;52.028;5.670;2023-06-14T08:43:34;30.10;48.60
27559;DHT22;15002;52.028;5.670;2023-06-14T08:46:04;29.90;49.00
27559;DHT22;15002;52.028;5.670;2023-06-14T08:48:32;30.10;49.20
27559;DHT22;15002;52.028;5.670;2023-06-14T08:51:01;30.40;48.40
27559;DHT22;15002;52.028;5.670;2023-06-14T08:53:31;30.60;47.60
27559;DHT22;15002;52.028;5.670;2023-06-14T08:55:58;30.60;47.40
27559;DHT22;15002;52.028;5.670;2023-06-14T08:58:27;29.70;48.90
27559;DHT22;15002;52.028;5.670;2023-06-14T09:00:55;30.00;47.60
27559;DHT22;15002;52.028;5.670;2023-06-14T09:03:21;30.00;47.90
27559;DHT22;15002;52.028;5.670;2023-06-14T09:05:48;29.80;47.90
27559;DHT22;15002;52.028;5.670;2023-06-14T09:08:15;29.30;47.50
27559;DHT22;15002;52.028;5.670;2023-06-14T09:10:41;29.20;47.90
27559;DHT22;15002;52.028;5.670;2023-06-14T09:13:07;29.30;47.80
27559;DHT22;15002;52.028;5.670;2023-06-14T09:15:33;29.00;48.10
27559;DHT22;15002;52.028;5.670;2023-06-14T09:18:01;29.00;49.10
27559;DHT22;15002;52.028;5.670;2023-06-14T09:20:30;28.60;48.30
27559;DHT22;15002;52.028;5.670;2023-06-14T09:22:56;28.80;48.20
27559;DHT22;15002;52.028;5.670;2023-06-14T09:25:22;28.10;48.70
27559;DHT22;15002;52.028;5.670;2023-06-14T09:27:48;28.30;49.40
27559;DHT22;15002;52.028;5.670;2023-06-14T09:30:13;28.60;49.50
27559;DHT22;15002;52.028;5.670;2023-06-14T09:32:39;28.70;49.20
27559;DHT22;15002;52.028;5.670;2023-06-14T09:35:09;28.10;49.20
27559;DHT22;15002;52.028;5.670;2023-06-14T09:37:35;27.90;50.00
27559;DHT22;15002;52.028;5.670;2023-06-14T09:40:03;27.90;50.20
27559;DHT22;15002;52.028;5.670;2023-06-14T09:42:29;27.80;50.60
27559;DHT22;15002;52.028;5.670;2023-06-14T09:44:56;27.80;50.50
27559;DHT22;15002;52.028;5.670;2023-06-14T09:47:23;27.90;50.60
27559;DHT22;15002;52.028;5.670;2023-06-14T09:49:50;28.00;49.90
27559;DHT22;15002;52.028;5.670;2023-06-14T09:52:20;27.90;50.40
27559;DHT22;15002;52.028;5.670;2023-06-14T09:54:47;27.20;51.70
27559;DHT22;15002;52.028;5.670;2023-06-14T09:57:15;27.10;51.90
27559;DHT22;15002;52.028;5.670;2023-06-14T09:59:43;27.60;52.20
27559;DHT22;15002;52.028;5.670;2023-06-14T10:02:29;27.50;51.30
27559;DHT22;15002;52.028;5.670;2023-06-14T10:05:06;27.80;51.10
27559;DHT22;15002;52.028;5.670;2023-06-14T10:10:24;27.40;49.80
27559;DHT22;15002;52.028;5.670;2023-06-14T10:12:50;27.20;50.50
27559;DHT22;15002;52.028;5.670;2023-06-14T10:15:20;27.10;51.20
27559;DHT22;15002;52.028;5.670;2023-06-14T10:18:02;27.00;51.60
27559;DHT22;15002;52.028;5.670;2023-06-14T10:20:53;26.80;52.10
27559;DHT22;15002;52.028;5.670;2023-06-14T10:23:23;27.00;52.30
27559;DHT22;15002;52.028;5.670;2023-06-14T10:25:56;27.00;52.50
27559;DHT22;15002;52.028;5.670;2023-06-14T10:28:23;26.80;51.30
27559;DHT22;15002;52.028;5.670;2023-06-14T10:31:09;26.90;51.40
27559;DHT22;15002;52.028;5.670;2023-06-14T10:33:56;27.30;51.80
27559;DHT22;15002;52.028;5.670;2023-06-14T10:39:04;26.90;52.60
27559;DHT22;15002;52.028;5.670;2023-06-14T10:41:32;26.80;52.70
27559;DHT22;15002;52.028;5.670;2023-06-14T10:44:30;27.10;52.50
27559;DHT22;15002;52.028;5.670;2023-06-14T10:46:59;26.90;53.20
27559;DHT22;15002;52.028;5.670;2023-06-14T10:52:15;26.80;53.70
27559;DHT22;15002;52.028;5.670;2023-06-14T10:55:16;27.10;53.60
27559;DHT22;15002;52.028;5.670;2023-06-14T10:57:51;26.70;53.50
27559;DHT22;15002;52.028;5.670;2023-06-14T11:00:36;26.40;53.30
27559;DHT22;15002;52.028;5.670;2023-06-14T11:11:00;26.80;52.70
27559;DHT22;15002;52.028;5.670;2023-06-14T11:13:31;26.90;52.40
27559;DHT22;15002;52.028;5.670;2023-06-14T11:15:56;27.10;52.30
27559;DHT22;15002;52.028;5.670;2023-06-14T11:18:23;27.20;52.20
27559;DHT22;15002;52.028;5.670;2023-06-14T11:20:55;26.70;52.70
27559;DHT22;15002;52.028;5.670;2023-06-14T11:23:21;26.10;53.70
27559;DHT22;15002;52.028;5.670;2023-06-14T11:25:51;26.20;53.80
27559;DHT22;15002;52.028;5.670;2023-06-14T11:28:17;26.30;53.90
27559;DHT22;15002;52.028;5.670;2023-06-14T11:30:45;26.40;53.70
27559;DHT22;15002;52.028;5.670;2023-06-14T11:33:17;26.40;54.10
27559;DHT22;15002;52.028;5.670;2023-06-14T11:35:44;26.10;54.50
27559;DHT22;15002;52.028;5.670;2023-06-14T11:38:11;25.80;55.20
27559;DHT22;15002;52.028;5.670;2023-06-14T11:40:38;25.80;54.70
27559;DHT22;15002;52.028;5.670;2023-06-14T11:43:04;26.00;54.40
27559;DHT22;15002;52.028;5.670;2023-06-14T11:45:31;26.00;54.20
27559;DHT22;15002;52.028;5.670;2023-06-14T11:47:59;25.80;54.70
27559;DHT22;15002;52.028;5.670;2023-06-14T11:50:26;25.70;54.50
27559;DHT22;15002;52.028;5.670;2023-06-14T11:52:59;25.90;54.90
27559;DHT22;15002;52.028;5.670;2023-06-14T11:55:29;26.20;54.20
27559;DHT22;15002;52.028;5.670;2023-06-14T11:57:55;25.80;54.30
27559;DHT22;15002;52.028;5.670;2023-06-14T12:00:25;25.90;53.80
27559;DHT22;15002;52.028;5.670;2023-06-14T12:02:54;26.20;54.70
27559;DHT22;15002;52.028;5.670;2023-06-14T12:05:24;25.80;55.30
27559;DHT22;15002;52.028;5.670;2023-06-14T12:07:58;25.50;55.80
27559;DHT22;15002;52.028;5.670;2023-06-14T12:10:25;26.10;55.40
27559;DHT22;15002;52.028;5.670;2023-06-14T12:12:57;26.20;55.00
27559;DHT22;15002;52.028;5.670;2023-06-14T12:15:23;26.60;54.00
27559;DHT22;15002;52.028;5.670;2023-06-14T12:17:49;26.60;53.70
27559;DHT22;15002;52.028;5.670;2023-06-14T12:20:16;26.50;53.50
27559;DHT22;15002;52.028;5.670;2023-06-14T12:22:55;26.60;52.90
27559;DHT22;15002;52.028;5.670;2023-06-14T12:25:35;26.60;53.30
27559;DHT22;15002;52.028;5.670;2023-06-14T12:28:07;26.90;53.10
27559;DHT22;15002;52.028;5.670;2023-06-14T12:30:34;26.30;54.00
27559;DHT22;15002;52.028;5.670;2023-06-14T12:33:01;26.10;53.80
27559;DHT22;15002;52.028;5.670;2023-06-14T12:35:27;25.90;55.20
27559;DHT22;15002;52.028;5.670;2023-06-14T12:37:52;26.20;54.30
27559;DHT22;15002;52.028;5.670;2023-06-14T12:40:18;26.50;54.20
27559;DHT22;15002;52.028;5.670;2023-06-14T12:42:44;26.90;53.70
27559;DHT22;15002;52.028;5.670;2023-06-14T12:45:12;26.70;53.70
27559;DHT22;15002;52.028;5.670;2023-06-14T12:47:38;26.50;53.70
27559;DHT22;15002;52.028;5.670;2023-06-14T12:50:05;26.80;54.00
27559;DHT22;15002;52.028;5.670;2023-06-14T12:52:31;26.70;54.20
27559;DHT22;15002;52.028;5.670;2023-06-14T12:54:57;26.30;54.70
27559;DHT22;15002;52.028;5.670;2023-06-14T12:57:23;26.00;55.50
27559;DHT22;15002;52.028;5.670;2023-06-14T12:59:49;25.80;55.50
27559;DHT22;15002;52.028;5.670;2023-06-14T13:02:17;26.40;54.90
27559;DHT22;15002;52.028;5.670;2023-06-14T13:04:43;26.60;53.00
27559;DHT22;15002;52.028;5.670;2023-06-14T13:07:09;26.40;53.10
27559;DHT22;15002;52.028;5.670;2023-06-14T13:09:36;26.60;52.60
27559;DHT22;15002;52.028;5.670;2023-06-14T13:12:02;26.60;51.70
27559;DHT22;15002;52.028;5.670;2023-06-14T13:14:28;27.00;51.80
27559;DHT22;15002;52.028;5.670;2023-06-14T13:16:53;27.00;52.10
27559;DHT22;15002;52.028;5.670;2023-06-14T13:19:20;26.80;52.80
27559;DHT22;15002;52.028;5.670;2023-06-14T13:21:46;26.70;53.30
27559;DHT22;15002;52.028;5.670;2023-06-14T13:24:11;26.80;53.50
27559;DHT22;15002;52.028;5.670;2023-06-14T13:26:37;26.80;53.20
27559;DHT22;15002;52.028;5.670;2023-06-14T13:29:03;27.00;52.50
27559;DHT22;15002;52.028;5.670;2023-06-14T13:31:29;27.00;52.30
27559;DHT22;15002;52.028;5.670;2023-06-14T13:33:55;27.10;52.50
27559;DHT22;15002;52.028;5.670;2023-06-14T13:36:21;27.00;53.10
27559;DHT22;15002;52.028;5.670;2023-06-14T13:38:46;27.20;53.50
27559;DHT22;15002;52.028;5.670;2023-06-14T13:41:12;27.20;52.90
27559;DHT22;15002;52.028;5.670;2023-06-14T13:43:37;26.90;52.80
27559;DHT22;15002;52.028;5.670;2023-06-14T13:46:03;26.90;52.70
27559;DHT22;15002;52.028;5.670;2023-06-14T13:48:29;26.50;52.80
27559;DHT22;15002;52.028;5.670;2023-06-14T13:50:55;26.50;53.30
27559;DHT22;15002;52.028;5.670;2023-06-14T13:53:20;26.20;54.10
27559;DHT22;15002;52.028;5.670;2023-06-14T13:55:46;26.30;53.80
27559;DHT22;15002;52.028;5.670;2023-06-14T13:58:13;26.60;53.70
27559;DHT22;15002;52.028;5.670;2023-06-14T14:00:40;26.90;53.40
27559;DHT22;15002;52.028;5.670;2023-06-14T14:03:06;27.40;52.90
27559;DHT22;15002;52.028;5.670;2023-06-14T14:05:32;27.40;52.80
27559;DHT22;15002;52.028;5.670;2023-06-14T14:07:58;27.40;53.30
27559;DHT22;15002;52.028;5.670;2023-06-14T14:10:27;27.30;53.20
27559;DHT22;15002;52.028;5.670;2023-06-14T14:12:52;27.30;53.00
27559;DHT22;15002;52.028;5.670;2023-06-14T14:15:20;27.30;53.00
27559;DHT22;15002;52.028;5.670;2023-06-14T14:17:46;27.30;53.00
27559;DHT22;15002;52.028;5.670;2023-06-14T14:20:12;27.10;53.70
27559;DHT22;15002;52.028;5.670;2023-06-14T14:22:41;27.10;53.70
27559;DHT22;15002;52.028;5.670;2023-06-14T14:25:07;27.00;54.30
27559;DHT22;15002;52.028;5.670;2023-06-14T14:27:32;27.10;54.20
27559;DHT22;15002;52.028;5.670;2023-06-14T14:29:58;27.20;54.30
27559;DHT22;15002;52.028;5.670;2023-06-14T14:32:24;27.00;54.20
27559;DHT22;15002;52.028;5.670;2023-06-14T14:34:49;27.00;54.60
27559;DHT22;15002;52.028;5.670;2023-06-14T14:37:16;27.10;53.80
27559;DHT22;15002;52.028;5.670;2023-06-14T14:39:41;26.80;54.10
27559;DHT22;15002;52.028;5.670;2023-06-14T14:42:07;26.70;53.30
27559;DHT22;15002;52.028;5.670;2023-06-14T14:44:33;26.80;53.90
27559;DHT22;15002;52.028;5.670;2023-06-14T14:46:59;26.80;54.50
27559;DHT22;15002;52.028;5.670;2023-06-14T14:49:24;26.70;54.20
27559;DHT22;15002;52.028;5.670;2023-06-14T14:51:50;26.70;53.80
27559;DHT22;15002;52.028;5.670;2023-06-14T14:54:16;26.80;54.20
27559;DHT22;15002;52.028;5.670;2023-06-14T14:56:41;26.50;53.90
27559;DHT22;15002;52.028;5.670;2023-06-14T14:59:08;26.50;54.20
27559;DHT22;15002;52.028;5.670;2023-06-14T15:01:34;26.40;54.30
27559;DHT22;15002;52.028;5.670;2023-06-14T15:04:00;26.40;53.70
27559;DHT22;15002;52.028;5.670;2023-06-14T15:06:26;26.40;52.90
27559;DHT22;15002;52.028;5.670;2023-06-14T15:08:52;26.00;54.00
27559;DHT22;15002;52.028;5.670;2023-06-14T15:11:17;26.10;54.00
27559;DHT22;15002;52.028;5.670;2023-06-14T15:13:43;26.20;53.70
27559;DHT22;15002;52.028;5.670;2023-06-14T15:16:09;26.70;53.60
27559;DHT22;15002;52.028;5.670;2023-06-14T15:18:34;26.70;53.30
27559;DHT22;15002;52.028;5.670;2023-06-14T15:21:00;27.00;51.40
27559;DHT22;15002;52.028;5.670;2023-06-14T15:23:26;27.10;52.30
27559;DHT22;15002;52.028;5.670;2023-06-14T15:25:51;27.10;51.20
27559;DHT22;15002;52.028;5.670;2023-06-14T15:28:17;27.10;52.50
27559;DHT22;15002;52.028;5.670;2023-06-14T15:30:43;27.10;53.30
27559;DHT22;15002;52.028;5.670;2023-06-14T15:33:08;27.00;53.80
27559;DHT22;15002;52.028;5.670;2023-06-14T15:35:34;27.10;53.50
27559;DHT22;15002;52.028;5.670;2023-06-14T15:38:00;26.80;53.80
27559;DHT22;15002;52.028;5.670;2023-06-14T15:40:25;26.60;54.10
27559;DHT22;15002;52.028;5.670;2023-06-14T15:42:52;26.40;54.30
27559;DHT22;15002;52.028;5.670;2023-06-14T15:45:17;26.40;53.70
27559;DHT22;15002;52.028;5.670;2023-06-14T15:47:43;26.50;53.90
27559;DHT22;15002;52.028;5.670;2023-06-14T15:50:09;26.90;52.80
27559;DHT22;15002;52.028;5.670;2023-06-14T15:52:35;26.90;52.80